createdAt,value
2022-08-27T00:02:13.940Z,71.90
2022-08-27T00:04:42.101Z,74.13
2022-08-27T00:07:11.370Z,70.67
2022-08-27T00:09:39.587Z,73.37
2022-08-27T00:12:09.142Z,74.60
2022-08-27T00:14:38.671Z,72.70
2022-08-27T00:17:07.945Z,73.80
2022-08-27T00:19:36.903Z,71.97
2022-08-27T00:22:05.960Z,72.30
2022-08-27T00:24:33.979Z,74.30
2022-08-27T00:27:02.077Z,70.60
2022-08-27T00:29:31.657Z,71.20
2022-08-27T00:32:00.407Z,70.97
2022-08-27T00:34:28.741Z,73.57
2022-08-27T00:36:56.741Z,73.57
2022-08-27T00:39:25.016Z,73.27
2022-08-27T00:41:52.990Z,71.27
2022-08-27T00:44:20.996Z,71.70
2022-08-27T00:46:52.737Z,72.33
2022-08-27T00:49:24.465Z,72.40
2022-08-27T00:51:56.651Z,74.10
2022-08-27T00:54:26.332Z,72.90
2022-08-27T00:56:54.432Z,70.00
2022-08-27T00:59:24.975Z,72.13
2022-08-27T01:02:11.752Z,71.77
2022-08-27T01:04:41.342Z,72.90
2022-08-27T01:07:09.950Z,74.40
2022-08-27T01:09:38.606Z,77.87
2022-08-27T01:12:07.215Z,76.93
2022-08-27T01:15:00.346Z,75.23
2022-08-27T01:17:29.747Z,74.60
2022-08-27T01:20:00.447Z,75.50
2022-08-27T01:22:34.434Z,75.53
2022-08-27T01:25:08.183Z,78.47
2022-08-27T01:27:36.532Z,79.97
2022-08-27T01:30:05.673Z,77.77
2022-08-27T01:32:35.481Z,80.03
2022-08-27T01:35:07.127Z,74.77
2022-08-27T01:37:35.959Z,75.90
2022-08-27T01:40:07.158Z,77.30
2022-08-27T01:42:37.543Z,75.40
2022-08-27T01:45:08.794Z,75.67
2022-08-27T01:47:37.804Z,78.53
2022-08-27T01:50:09.163Z,72.70
2022-08-27T01:52:37.181Z,72.97
2022-08-27T01:55:09.388Z,78.20
2022-08-27T01:57:37.514Z,76.20
2022-08-27T02:00:07.202Z,74.67
2022-08-27T02:02:40.066Z,73.30
2022-08-27T02:05:08.481Z,73.00
2022-08-27T02:07:37.388Z,75.13
2022-08-27T02:10:09.445Z,72.47
2022-08-27T02:12:37.553Z,71.20
2022-08-27T02:15:06.840Z,73.70
2022-08-27T02:17:35.195Z,73.33
2022-08-27T02:20:03.623Z,73.57
2022-08-27T02:22:31.954Z,74.20
2022-08-27T02:24:59.932Z,75.90
2022-08-27T02:27:29.411Z,75.87
2022-08-27T02:29:57.428Z,73.13
2022-08-27T02:32:31.672Z,73.17
2022-08-27T02:35:00.667Z,72.50
2022-08-27T02:37:28.688Z,73.40
2022-08-27T02:39:57.133Z,72.90
2022-08-27T02:42:25.214Z,72.63
2022-08-27T02:44:54.993Z,73.60
2022-08-27T02:47:23.007Z,71.77
2022-08-27T02:49:51.074Z,71.73
2022-08-27T02:52:22.772Z,71.50
2022-08-27T02:54:53.588Z,72.57
2022-08-27T02:57:22.523Z,72.00
2022-08-27T02:59:50.960Z,74.30
2022-08-27T03:02:20.912Z,73.17
2022-08-27T03:04:49.596Z,82.13
2022-08-27T03:07:19.593Z,73.97
2022-08-27T03:09:47.843Z,73.67
2022-08-27T03:12:16.028Z,73.53
2022-08-27T03:14:44.651Z,78.37
2022-08-27T03:17:30.535Z,72.87
2022-08-27T03:20:01.593Z,74.07
2022-08-27T03:22:29.638Z,75.13
2022-08-27T03:24:57.646Z,73.23
2022-08-27T03:27:25.655Z,73.57
2022-08-27T03:29:54.225Z,75.07
2022-08-27T03:32:22.283Z,72.30
2022-08-27T03:34:50.352Z,74.67
2022-08-27T03:37:19.760Z,71.60
2022-08-27T03:39:47.800Z,73.70
2022-08-27T03:42:15.804Z,72.00
2022-08-27T03:44:43.846Z,75.67
2022-08-27T03:47:11.918Z,71.73
2022-08-27T03:49:40.003Z,73.90
2022-08-27T03:52:08.823Z,76.20
2022-08-27T03:54:38.794Z,75.10
2022-08-27T03:57:07.590Z,74.37
2022-08-27T03:59:36.022Z,74.50
2022-08-27T04:02:04.164Z,73.27
2022-08-27T04:04:32.454Z,71.90
2022-08-27T04:07:01.071Z,74.20
2022-08-27T04:09:29.337Z,73.97
2022-08-27T04:11:58.815Z,74.40
2022-08-27T04:14:27.645Z,75.03
2022-08-27T04:16:56.913Z,73.03
2022-08-27T04:19:28.101Z,79.97
2022-08-27T04:22:01.226Z,73.43
2022-08-27T04:24:30.730Z,72.07
2022-08-27T04:27:00.916Z,72.83
2022-08-27T04:29:29.427Z,71.93
2022-08-27T04:31:57.683Z,71.87
2022-08-27T04:34:25.880Z,74.03
2022-08-27T04:36:56.716Z,73.23
2022-08-27T04:39:25.248Z,76.67
2022-08-27T04:41:54.988Z,74.90
2022-08-27T04:44:25.401Z,74.93
2022-08-27T04:46:56.631Z,76.17
2022-08-27T04:49:25.260Z,72.90
2022-08-27T04:51:53.412Z,74.60
2022-08-27T04:54:22.497Z,75.60
2022-08-27T04:57:00.671Z,76.37
2022-08-27T04:59:30.301Z,80.70
2022-08-27T05:01:58.451Z,81.87
2022-08-27T05:04:26.752Z,74.20
2022-08-27T05:06:54.973Z,74.47
2022-08-27T05:09:24.588Z,76.50
2022-08-27T05:11:55.480Z,75.30
2022-08-27T05:14:25.410Z,78.90
2022-08-27T05:16:54.800Z,76.33
2022-08-27T05:19:22.799Z,74.90
2022-08-27T05:21:53.161Z,74.47
2022-08-27T05:24:21.495Z,76.67
2022-08-27T05:26:49.851Z,78.30
2022-08-27T05:29:18.157Z,75.57
2022-08-27T05:31:47.936Z,74.37
2022-08-27T05:34:24.689Z,75.37
2022-08-27T05:36:55.571Z,73.27
2022-08-27T05:39:23.700Z,74.17
2022-08-27T05:41:52.943Z,76.30
2022-08-27T05:47:09.181Z,75.13
2022-08-27T05:49:38.931Z,74.60
2022-08-27T05:52:10.492Z,79.60
2022-08-27T05:54:38.961Z,78.63
2022-08-27T05:57:07.155Z,75.60
2022-08-27T05:59:53.104Z,73.53
2022-08-27T06:02:21.864Z,72.97
2022-08-27T06:04:51.353Z,73.77
2022-08-27T06:07:19.859Z,76.87
2022-08-27T06:09:47.868Z,76.00
2022-08-27T06:12:15.985Z,76.17
2022-08-27T06:14:44.101Z,76.47
2022-08-27T06:17:12.257Z,75.37
2022-08-27T06:19:42.409Z,77.40
2022-08-27T06:22:12.024Z,76.77
2022-08-27T06:24:41.577Z,79.10
2022-08-27T06:27:11.290Z,75.50
2022-08-27T06:29:39.878Z,74.70
2022-08-27T06:32:09.209Z,74.83
2022-08-27T06:34:38.122Z,75.10
2022-08-27T06:37:06.389Z,72.83
2022-08-27T06:39:37.558Z,73.97
2022-08-27T06:42:06.314Z,75.20
2022-08-27T06:44:35.255Z,75.07
2022-08-27T06:47:04.682Z,74.23
2022-08-27T06:49:33.768Z,77.37
2022-08-27T06:52:02.262Z,74.97
2022-08-27T06:54:30.820Z,76.20
2022-08-27T06:57:01.063Z,74.80
2022-08-27T06:59:29.239Z,80.80
2022-08-27T07:01:57.453Z,73.93
2022-08-27T07:04:32.376Z,79.83
2022-08-27T07:07:04.246Z,78.63
2022-08-27T07:09:33.057Z,76.13
2022-08-27T07:12:02.738Z,76.63
2022-08-27T07:14:37.163Z,75.77
2022-08-27T07:17:10.767Z,78.37
2022-08-27T07:19:41.093Z,74.97
2022-08-27T07:22:09.637Z,78.63
2022-08-27T07:24:38.482Z,77.97
2022-08-27T07:27:08.525Z,76.00
2022-08-27T07:29:36.626Z,74.37
2022-08-27T07:32:05.480Z,75.70
2022-08-27T07:34:33.531Z,75.90
2022-08-27T07:37:02.044Z,77.20
2022-08-27T07:39:30.156Z,75.63
2022-08-27T07:42:16.391Z,76.27
2022-08-27T07:44:46.088Z,80.50
2022-08-27T07:47:14.173Z,80.00
2022-08-27T07:49:42.241Z,78.63
2022-08-27T07:52:10.612Z,76.33
2022-08-27T07:54:38.685Z,74.70
2022-08-27T07:57:06.848Z,73.17
2022-08-27T07:59:34.972Z,74.87
2022-08-27T08:02:05.476Z,80.23
2022-08-27T08:04:33.526Z,74.70
2022-08-27T08:07:01.692Z,73.87
2022-08-27T08:09:32.189Z,73.93
2022-08-27T08:12:00.285Z,73.97
2022-08-27T08:14:28.401Z,74.07
2022-08-27T08:17:00.471Z,74.37
2022-08-27T08:19:35.057Z,73.93
2022-08-27T08:22:05.819Z,74.43
2022-08-27T08:24:35.239Z,74.60
2022-08-27T08:27:07.205Z,73.90
2022-08-27T08:29:36.859Z,77.90
2022-08-27T08:32:05.483Z,76.43
2022-08-27T08:34:36.781Z,75.60
2022-08-27T08:37:05.344Z,74.70
2022-08-27T08:39:33.433Z,75.37
2022-08-27T08:42:03.199Z,74.77
2022-08-27T08:44:34.162Z,75.90
2022-08-27T08:47:09.595Z,76.07
2022-08-27T08:49:48.137Z,73.87
2022-08-27T08:52:31.261Z,78.57
2022-08-27T08:55:08.631Z,76.93
2022-08-27T08:57:41.110Z,76.47
2022-08-27T09:00:13.341Z,76.23
2022-08-27T09:02:42.877Z,75.33
2022-08-27T09:05:13.011Z,76.63
2022-08-27T09:07:47.278Z,75.53
2022-08-27T09:10:20.824Z,76.13
2022-08-27T09:12:48.915Z,76.90
2022-08-27T09:15:20.348Z,76.70
2022-08-27T09:17:48.988Z,73.77
2022-08-27T09:20:21.381Z,73.73
2022-08-27T09:22:59.239Z,76.63
2022-08-27T09:25:29.749Z,75.97
2022-08-27T09:28:00.195Z,79.90
2022-08-27T09:30:31.095Z,77.00
2022-08-27T09:33:56.298Z,79.83
2022-08-27T09:36:26.513Z,79.13
2022-08-27T09:38:58.914Z,80.13
2022-08-27T09:41:29.316Z,79.00
2022-08-27T09:43:58.901Z,77.73
2022-08-27T09:46:28.248Z,76.87
2022-08-27T09:48:56.856Z,76.77
2022-08-27T09:51:28.461Z,77.10
2022-08-27T09:53:58.698Z,75.63
2022-08-27T09:56:30.004Z,76.30
2022-08-27T09:59:03.692Z,77.77
2022-08-27T10:01:34.354Z,82.50
2022-08-27T10:04:09.668Z,76.67
2022-08-27T10:06:45.989Z,76.27
2022-08-27T10:09:17.663Z,76.10
2022-08-27T10:11:51.121Z,75.97
2022-08-27T10:14:26.563Z,73.90
2022-08-27T10:17:07.916Z,75.00
2022-08-27T10:19:43.895Z,77.27
2022-08-27T10:22:21.210Z,77.43
2022-08-27T10:25:01.285Z,74.07
2022-08-27T10:27:34.833Z,78.60
2022-08-27T10:30:06.429Z,74.50
2022-08-27T10:32:52.362Z,74.57
2022-08-27T10:35:25.346Z,72.00
2022-08-27T10:38:02.890Z,73.40
2022-08-27T10:40:35.227Z,73.17
2022-08-27T10:43:19.574Z,74.50
2022-08-27T10:45:52.718Z,73.57
2022-08-27T10:48:25.178Z,73.07
2022-08-27T10:50:59.365Z,70.20
2022-08-27T10:53:33.695Z,75.60
2022-08-27T10:56:10.160Z,74.40
2022-08-27T10:58:55.742Z,73.57
2022-08-27T11:01:31.693Z,73.93
2022-08-27T11:04:03.697Z,73.47
2022-08-27T11:06:33.706Z,72.27
2022-08-27T11:09:08.315Z,74.97
2022-08-27T11:12:12.780Z,77.60
2022-08-27T11:14:32.160Z,75.97
2022-08-27T11:17:04.801Z,73.87
2022-08-27T11:19:47.969Z,73.60
2022-08-27T11:22:26.232Z,73.80
2022-08-27T11:25:01.172Z,76.20
2022-08-27T11:27:32.071Z,73.50
2022-08-27T11:30:05.223Z,73.50
2022-08-27T11:32:41.685Z,71.53
2022-08-27T11:35:16.459Z,74.10
2022-08-27T11:38:22.282Z,74.00
2022-08-27T11:41:00.857Z,73.17
2022-08-27T11:43:30.473Z,73.37
2022-08-27T11:46:00.554Z,72.87
2022-08-27T11:48:30.609Z,73.17
2022-08-27T11:51:01.186Z,71.27
2022-08-27T11:53:31.484Z,77.70
2022-08-27T11:56:11.821Z,73.67
2022-08-27T11:58:53.087Z,81.37
2022-08-27T12:01:27.165Z,73.50
2022-08-27T12:04:01.999Z,72.80
2022-08-27T12:06:42.600Z,76.23
2022-08-27T12:09:17.622Z,74.53
2022-08-27T12:11:56.804Z,71.30
2022-08-27T12:14:37.553Z,74.40
2022-08-27T12:17:09.441Z,70.13
2022-08-27T12:19:47.118Z,73.87
2022-08-27T12:23:01.035Z,70.30
2022-08-27T12:25:29.491Z,72.13
2022-08-27T12:28:03.173Z,70.80
2022-08-27T12:30:33.296Z,70.00
2022-08-27T12:33:10.132Z,69.13
2022-08-27T12:35:44.183Z,70.37
2022-08-27T12:38:17.190Z,71.37
2022-08-27T12:40:49.545Z,71.00
2022-08-27T12:43:22.716Z,71.60
2022-08-27T12:45:53.273Z,71.53
2022-08-27T12:48:24.675Z,69.40
2022-08-27T12:50:54.100Z,72.47
2022-08-27T12:53:38.846Z,71.07
2022-08-27T12:56:21.226Z,69.37
2022-08-27T12:58:53.893Z,72.43
2022-08-27T13:01:32.274Z,72.70
2022-08-27T13:04:01.333Z,75.13
2022-08-27T13:06:33.088Z,71.27
2022-08-27T13:09:02.503Z,73.00
2022-08-27T13:11:32.229Z,69.20
2022-08-27T13:14:09.422Z,74.80
2022-08-27T13:16:39.954Z,70.10
2022-08-27T13:19:09.256Z,70.00
2022-08-27T13:21:37.484Z,70.50
2022-08-27T13:24:07.155Z,70.80
2022-08-27T13:26:38.946Z,70.27
2022-08-27T13:29:09.126Z,71.13
2022-08-27T13:31:37.207Z,70.30
2022-08-27T13:34:06.847Z,72.07
2022-08-27T13:36:36.924Z,72.20
2022-08-27T13:39:06.879Z,71.40
2022-08-27T13:41:37.044Z,71.00
2022-08-27T13:44:10.886Z,70.87
2022-08-27T13:46:47.256Z,73.67
2022-08-27T13:49:19.921Z,71.20
2022-08-27T13:51:48.874Z,72.20
2022-08-27T13:54:17.875Z,73.20
2022-08-27T13:57:08.511Z,72.60
2022-08-27T13:59:43.082Z,71.87
2022-08-27T14:02:24.325Z,73.33
2022-08-27T14:05:06.417Z,72.77
2022-08-27T14:07:36.965Z,73.80
2022-08-27T14:10:08.016Z,76.40
2022-08-27T14:12:38.398Z,77.30
2022-08-27T14:15:20.935Z,73.30
2022-08-27T14:17:49.507Z,83.40
2022-08-27T14:20:42.520Z,73.20
2022-08-27T14:23:10.733Z,76.67
2022-08-27T14:25:38.847Z,72.10
2022-08-27T14:28:07.181Z,73.80
2022-08-27T14:30:37.120Z,73.13
2022-08-27T14:33:05.209Z,75.53
2022-08-27T14:35:34.837Z,79.07
2022-08-27T14:38:08.116Z,78.00
2022-08-27T14:40:36.359Z,74.63
2022-08-27T14:43:05.154Z,75.70
2022-08-27T14:45:37.080Z,72.33
2022-08-27T14:48:06.810Z,72.07
2022-08-27T14:50:43.472Z,81.63
2022-08-27T14:53:11.661Z,71.07
2022-08-27T14:55:39.914Z,71.77
2022-08-27T14:58:08.536Z,73.20
2022-08-27T15:00:38.454Z,71.40
2022-08-27T15:03:07.708Z,76.60
2022-08-27T15:05:35.756Z,73.30
2022-08-27T15:08:04.616Z,72.50
2022-08-27T15:10:33.014Z,75.70
2022-08-27T15:13:01.106Z,72.57
2022-08-27T15:15:29.213Z,74.47
2022-08-27T15:17:58.701Z,81.80
2022-08-27T15:20:26.807Z,71.57
2022-08-27T15:22:55.124Z,72.57
2022-08-27T15:25:23.497Z,73.27
2022-08-27T15:27:51.545Z,72.97
2022-08-27T15:30:27.132Z,73.60
2022-08-27T15:32:55.731Z,74.97
2022-08-27T15:35:27.530Z,71.67
2022-08-27T15:37:56.694Z,73.17
2022-08-27T15:40:25.686Z,75.60
2022-08-27T15:42:57.074Z,77.30
2022-08-27T15:45:27.629Z,71.03
2022-08-27T15:47:56.203Z,81.03
2022-08-27T15:50:25.896Z,73.13
2022-08-27T15:52:58.275Z,72.57
2022-08-27T15:55:29.496Z,71.83
2022-08-27T15:57:58.567Z,73.53
2022-08-27T16:00:28.205Z,70.20
2022-08-27T16:02:57.124Z,70.27
2022-08-27T16:05:27.803Z,70.87
2022-08-27T16:07:56.025Z,70.50
2022-08-27T16:10:24.210Z,70.13
2022-08-27T16:12:52.354Z,71.20
2022-08-27T16:15:20.693Z,70.30
2022-08-27T16:17:48.890Z,70.43
2022-08-27T16:20:17.135Z,71.70
2022-08-27T16:22:46.676Z,71.57
2022-08-27T16:25:18.475Z,71.17
2022-08-27T16:27:48.756Z,73.43
2022-08-27T16:30:17.179Z,74.50
2022-08-27T16:32:47.870Z,74.73
2022-08-27T16:35:16.577Z,71.93
2022-08-27T16:37:46.170Z,71.40
2022-08-27T16:40:15.030Z,71.77
2022-08-27T16:42:45.515Z,74.60
2022-08-27T16:45:14.790Z,76.03
2022-08-27T16:47:56.873Z,73.27
2022-08-27T16:50:37.041Z,74.00
2022-08-27T16:53:09.566Z,73.40
2022-08-27T16:55:39.117Z,73.07
2022-08-27T16:58:14.641Z,80.80
2022-08-27T17:00:42.887Z,72.07
2022-08-27T17:03:10.987Z,72.27
2022-08-27T17:05:39.176Z,72.80
2022-08-27T17:08:11.463Z,72.60
2022-08-27T17:10:43.377Z,73.20
2022-08-27T17:13:19.329Z,71.90
2022-08-27T17:15:53.167Z,72.43
2022-08-27T17:18:22.279Z,73.37
2022-08-27T17:20:50.495Z,72.73
2022-08-27T17:23:22.833Z,72.20
2022-08-27T17:25:51.046Z,72.30
2022-08-27T17:28:19.713Z,77.63
2022-08-27T17:30:47.886Z,73.80
2022-08-27T17:33:21.055Z,74.10
2022-08-27T17:35:49.299Z,73.50
2022-08-27T17:38:17.407Z,72.97
2022-08-27T17:40:47.308Z,72.63
2022-08-27T17:43:21.258Z,71.70
2022-08-27T17:45:50.082Z,71.67
2022-08-27T17:48:24.792Z,73.50
2022-08-27T17:50:55.026Z,74.63
2022-08-27T17:53:23.121Z,72.60
2022-08-27T17:55:52.743Z,72.77
2022-08-27T17:58:21.446Z,71.60
2022-08-27T18:00:50.083Z,72.40
2022-08-27T18:03:20.641Z,71.23
2022-08-27T18:05:49.511Z,70.90
2022-08-27T18:08:17.793Z,71.50
2022-08-27T18:10:48.851Z,72.47
2022-08-27T18:13:18.498Z,73.37
2022-08-27T18:15:46.827Z,72.70
2022-08-27T18:18:15.765Z,71.67
2022-08-27T18:20:43.818Z,71.60
2022-08-27T18:23:12.505Z,72.80
2022-08-27T18:25:41.030Z,70.53
2022-08-27T18:28:11.324Z,70.30
2022-08-27T18:30:43.460Z,72.03
2022-08-27T18:33:11.766Z,71.80
2022-08-27T18:35:40.364Z,72.60
2022-08-27T18:38:08.793Z,71.97
2022-08-27T18:40:39.461Z,76.60
2022-08-27T18:43:07.790Z,72.13
2022-08-27T18:45:37.766Z,71.63
2022-08-27T18:48:13.121Z,71.97
2022-08-27T18:50:45.001Z,71.60
2022-08-27T18:53:13.965Z,71.73
2022-08-27T18:55:42.330Z,71.23
2022-08-27T18:58:10.541Z,71.37
2022-08-27T19:00:39.187Z,71.87
2022-08-27T19:03:09.404Z,71.80
2022-08-27T19:05:37.638Z,71.47
2022-08-27T19:08:05.703Z,72.07
2022-08-27T19:10:34.578Z,70.80
2022-08-27T19:13:02.628Z,75.73
2022-08-27T19:15:30.721Z,75.70
2022-08-27T19:18:02.950Z,70.27
2022-08-27T19:20:32.545Z,70.83
2022-08-27T19:23:00.594Z,70.30
2022-08-27T19:25:29.579Z,71.60
2022-08-27T19:27:57.870Z,70.17
2022-08-27T19:30:26.999Z,70.90
2022-08-27T19:32:57.649Z,70.67
2022-08-27T19:35:26.116Z,69.87
2022-08-27T19:37:55.828Z,69.30
2022-08-27T19:40:24.141Z,72.60
2022-08-27T19:42:52.305Z,70.03
2022-08-27T19:45:23.030Z,70.17
2022-08-27T19:47:51.857Z,69.93
2022-08-27T19:50:20.488Z,70.27
2022-08-27T19:52:48.542Z,68.00
2022-08-27T19:55:18.307Z,70.67
2022-08-27T19:57:46.684Z,69.23
2022-08-27T20:00:17.044Z,68.37
2022-08-27T20:02:46.483Z,69.70
2022-08-27T20:05:19.021Z,69.27
2022-08-27T20:07:47.493Z,68.13
2022-08-27T20:10:16.941Z,68.10
2022-08-27T20:12:46.352Z,68.50
2022-08-27T20:15:15.212Z,68.17
2022-08-27T20:17:44.046Z,68.67
2022-08-27T20:20:13.603Z,68.37
2022-08-27T20:22:42.075Z,68.07
2022-08-27T20:25:10.902Z,68.43
2022-08-27T20:27:40.844Z,69.87
2022-08-27T20:30:11.465Z,68.17
2022-08-27T20:32:39.478Z,68.40
2022-08-27T20:35:09.579Z,69.47
2022-08-27T20:37:42.022Z,69.53
2022-08-27T20:40:15.110Z,68.67
2022-08-27T20:42:45.419Z,67.80
2022-08-27T20:45:14.063Z,68.77
2022-08-27T20:47:42.640Z,67.37
2022-08-27T20:50:12.817Z,67.40
2022-08-27T20:52:41.225Z,67.77
2022-08-27T20:55:12.080Z,68.57
2022-08-27T20:58:04.530Z,67.90
2022-08-27T21:00:37.025Z,67.47
2022-08-27T21:03:30.335Z,68.93
2022-08-27T21:05:58.338Z,68.47
2022-08-27T21:08:26.450Z,68.20
2022-08-27T21:10:57.409Z,69.10
2022-08-27T21:13:27.749Z,68.57
2022-08-27T21:15:57.249Z,71.73
2022-08-27T21:18:29.980Z,68.33
2022-08-27T21:20:58.675Z,68.77
2022-08-27T21:23:27.850Z,68.30
2022-08-27T21:25:56.125Z,67.90
2022-08-27T21:28:24.148Z,68.40
2022-08-27T21:30:52.141Z,69.50
2022-08-27T21:33:21.703Z,68.80
2022-08-27T21:35:49.757Z,68.40
2022-08-27T21:38:17.798Z,68.00
2022-08-27T21:40:45.834Z,68.87
2022-08-27T21:43:13.887Z,67.60
2022-08-27T21:45:45.880Z,67.67
2022-08-27T21:48:14.114Z,70.27
2022-08-27T21:50:43.653Z,67.57
2022-08-27T21:53:11.726Z,68.90
2022-08-27T21:55:39.781Z,68.07
2022-08-27T21:58:07.842Z,68.63
2022-08-27T22:00:41.095Z,69.60
2022-08-27T22:03:13.338Z,68.30
2022-08-27T22:05:45.016Z,68.20
2022-08-27T22:08:14.056Z,68.00
2022-08-27T22:10:44.593Z,68.67
2022-08-27T22:13:13.006Z,68.70
2022-08-27T22:15:41.523Z,69.20
2022-08-27T22:18:09.993Z,68.20
2022-08-27T22:20:38.399Z,68.23
2022-08-27T22:23:10.325Z,69.37
2022-08-27T22:25:38.496Z,67.90
2022-08-27T22:28:06.990Z,68.30
2022-08-27T22:30:35.175Z,67.67
2022-08-27T22:33:03.282Z,68.50
2022-08-27T22:35:31.349Z,67.10
2022-08-27T22:37:59.388Z,70.47
2022-08-27T22:40:30.744Z,68.53
2022-08-27T22:42:59.157Z,68.60
2022-08-27T22:45:28.178Z,68.40
2022-08-27T22:47:56.381Z,68.53
2022-08-27T22:50:24.801Z,67.77
2022-08-27T22:52:54.243Z,68.47
2022-08-27T22:55:23.656Z,68.57
2022-08-27T22:57:54.350Z,69.00
2022-08-27T23:00:24.996Z,67.47
2022-08-27T23:02:53.262Z,69.37
2022-08-27T23:05:21.820Z,67.37
2022-08-27T23:07:49.886Z,69.57
2022-08-27T23:10:19.362Z,68.97
2022-08-27T23:12:48.194Z,67.87
2022-08-27T23:15:19.712Z,68.70
2022-08-27T23:17:47.842Z,67.30
2022-08-27T23:20:17.055Z,67.90
2022-08-27T23:22:45.541Z,68.00
2022-08-27T23:25:31.615Z,70.10
2022-08-27T23:27:59.993Z,68.90
2022-08-27T23:30:30.353Z,71.43
2022-08-27T23:32:58.425Z,68.07
2022-08-27T23:35:29.128Z,68.50
2022-08-27T23:37:57.962Z,69.47
2022-08-27T23:40:26.456Z,68.80
2022-08-27T23:42:54.936Z,68.40
2022-08-27T23:45:25.371Z,68.67
2022-08-27T23:47:54.776Z,68.03
2022-08-27T23:50:31.525Z,68.90
2022-08-27T23:53:02.453Z,72.40
2022-08-27T23:55:30.553Z,68.87
2022-08-27T23:57:58.594Z,69.67
